イヌヴィック の空港の天気 - METARとTAF

イヌヴィック空港 ( CYEV / YEV ) - カナダ ノースウエスト準州イヌヴィック
飛行場実況気象(Metar)
観測時間10/22 06:00 MDT (10/22 12:00 UTC)
風向・風速不定 1m/s
視程10km以上
天気現象
少しの雲 雲底高度 1220m
全天の4割程度の雲 雲底高度 3050m
気温-9℃
湿度73%
気圧1034.2hPa
METARCYEV 221200Z VRB02KT 15SM FEW040 SCT100 M09/M13 A3051 RMK SC2AC1 SLP342
過去の天気等 Google飛行場航空写真 Wunderground天気予報

過去48時間のMETAR

飛行場予報(TAF)
発表時間: 10/22 01:04 MDT (10/22 07:04 UTC)
予報対象時間: 22日1時 MDT ~ 22日13時 MDT
風向・風速南 3m/s
視程10km以上
少しの雲 雲底高度 1520m
全天の4割程度の雲 雲底高度 3660m
22日4時 MDT から
風向・風速南 4m/s
視程10km以上
少しの雲 雲底高度 910m
全天の8割程度の雲 雲底高度 1520m
22日4時 MDT ~ 22日12時 MDT に一時的に
視程8050m
天気現象弱い雪
全天の4割程度の雲 雲底高度 370m
全天の8割程度の雲 雲底高度 910m
22日12時 MDT から
風向・風速南 4m/s
視程10km以上
全天の4割程度の雲 雲底高度 370m
全天の8割程度の雲 雲底高度 910m
22日12時 MDT ~ 22日13時 MDT に一時的に
視程4830m
天気現象弱い雪
全天の8割程度の雲 雲底高度 370m
TAF AMD CYEV 220704Z 2207/2219 19006KT P6SM FEW050 SCT120
FM221000 18008KT P6SM FEW030 BKN050
TEMPO 2210/2218 5SM -SN SCT012 BKN030
FM221800 19008KT P6SM SCT012 BKN030
TEMPO 2218/2219 3SM -SN BKN012 RMK NXT FCST BY 221300Z